createdAt,value
2018-03-15T00:01:25.500Z,4.70
2018-03-15T00:03:52.999Z,4.60
2018-03-15T00:06:21.230Z,4.60
2018-03-15T00:08:48.723Z,4.60
2018-03-15T00:11:16.199Z,4.60
2018-03-15T00:13:44.441Z,4.50
2018-03-15T00:16:11.899Z,4.50
2018-03-15T00:18:39.420Z,4.50
2018-03-15T00:21:06.878Z,4.50
2018-03-15T00:23:34.346Z,4.50
2018-03-15T00:26:01.822Z,4.50
2018-03-15T00:28:29.287Z,4.40
2018-03-15T00:30:56.850Z,4.40
2018-03-15T00:33:25.095Z,4.40
2018-03-15T00:35:52.560Z,4.30
2018-03-15T00:38:20.014Z,4.40
2018-03-15T00:40:48.328Z,4.40
2018-03-15T00:43:16.636Z,4.30
2018-03-15T00:45:44.922Z,4.30
2018-03-15T00:48:12.416Z,4.30
2018-03-15T00:50:39.875Z,4.30
2018-03-15T00:53:07.332Z,4.30
2018-03-15T00:55:34.807Z,4.30
2018-03-15T00:58:03.035Z,4.20
2018-03-15T01:00:30.499Z,4.20
2018-03-15T01:02:57.958Z,4.20
2018-03-15T01:05:25.423Z,4.20
2018-03-15T01:07:52.889Z,4.20
2018-03-15T01:10:20.354Z,4.20
2018-03-15T01:12:47.812Z,4.20
2018-03-15T01:15:15.272Z,4.20
2018-03-15T01:17:42.739Z,4.20
2018-03-15T01:20:10.971Z,4.20
2018-03-15T01:22:38.441Z,4.20
2018-03-15T01:25:05.931Z,4.20
2018-03-15T01:27:34.163Z,4.20
2018-03-15T01:30:01.637Z,4.10
2018-03-15T01:32:29.110Z,4.20
2018-03-15T01:34:57.342Z,4.20
2018-03-15T01:37:24.805Z,4.20
2018-03-15T01:39:52.283Z,4.20
2018-03-15T01:42:19.757Z,4.20
2018-03-15T01:44:47.211Z,4.20
2018-03-15T01:47:14.687Z,4.20
2018-03-15T01:49:43.916Z,4.20
2018-03-15T01:52:11.406Z,4.10
2018-03-15T01:54:38.874Z,4.10
2018-03-15T01:57:06.344Z,4.10
2018-03-15T01:59:34.566Z,4.00
2018-03-15T02:02:02.035Z,4.00
2018-03-15T02:04:29.506Z,4.00
2018-03-15T02:06:56.971Z,4.00
2018-03-15T02:09:24.446Z,4.00
2018-03-15T02:11:52.679Z,4.00
2018-03-15T02:14:22.642Z,4.00
2018-03-15T02:16:51.022Z,3.90
2018-03-15T02:19:19.247Z,3.90
2018-03-15T02:21:46.728Z,3.90
2018-03-15T02:24:14.190Z,4.00
2018-03-15T02:26:41.668Z,4.00
2018-03-15T02:29:09.905Z,3.90
2018-03-15T02:31:37.389Z,3.90
2018-03-15T02:34:04.852Z,3.90
2018-03-15T02:36:33.095Z,3.90
2018-03-15T02:39:00.562Z,3.90
2018-03-15T02:41:28.026Z,3.90
2018-03-15T02:43:55.479Z,3.90
2018-03-15T02:46:22.950Z,3.90
2018-03-15T02:48:51.197Z,3.80
2018-03-15T02:51:18.673Z,3.70
2018-03-15T02:53:46.142Z,3.80
2018-03-15T02:56:14.387Z,3.80
2018-03-15T02:58:41.864Z,3.80
2018-03-15T03:01:09.351Z,3.80
2018-03-15T03:03:37.559Z,3.80
2018-03-15T03:06:05.042Z,3.80
2018-03-15T03:08:32.576Z,3.80
2018-03-15T03:11:00.043Z,3.80
2018-03-15T03:13:27.508Z,3.70
2018-03-15T03:15:54.996Z,3.70
2018-03-15T03:18:25.989Z,3.70
2018-03-15T03:20:53.450Z,3.70
2018-03-15T03:23:20.915Z,3.70
2018-03-15T03:25:48.382Z,3.70
2018-03-15T03:28:15.857Z,3.70
2018-03-15T03:30:44.103Z,3.80
2018-03-15T03:33:11.575Z,3.80
2018-03-15T03:35:39.043Z,3.70
2018-03-15T03:38:07.358Z,3.80
2018-03-15T03:40:34.814Z,3.80
2018-03-15T03:43:02.318Z,3.80
2018-03-15T03:45:29.795Z,3.80
2018-03-15T03:47:58.039Z,3.80
2018-03-15T03:50:25.515Z,3.80
2018-03-15T03:52:53.005Z,3.80
2018-03-15T03:55:20.470Z,3.90
2018-03-15T03:57:47.926Z,3.80
2018-03-15T04:00:15.410Z,3.80
2018-03-15T04:02:42.874Z,3.70
2018-03-15T04:05:10.355Z,3.80
2018-03-15T04:07:37.839Z,3.70
2018-03-15T04:10:06.089Z,3.70
2018-03-15T04:12:34.086Z,3.70
2018-03-15T04:15:01.594Z,3.70
2018-03-15T04:17:29.065Z,3.70
2018-03-15T04:19:56.631Z,3.80
2018-03-15T04:22:24.105Z,3.80
2018-03-15T04:24:52.338Z,3.70
2018-03-15T04:27:19.806Z,3.70
2018-03-15T04:29:47.291Z,3.80
2018-03-15T04:32:15.521Z,3.70
2018-03-15T04:34:42.998Z,3.70
2018-03-15T04:37:11.251Z,3.70
2018-03-15T04:39:38.724Z,3.70
2018-03-15T04:42:06.206Z,3.70
2018-03-15T04:44:34.963Z,3.70
2018-03-15T04:47:02.455Z,3.60
2018-03-15T04:49:30.708Z,3.70
2018-03-15T04:51:58.179Z,3.70
2018-03-15T04:54:25.660Z,3.70
2018-03-15T04:56:53.131Z,3.70
2018-03-15T04:59:20.620Z,3.70
2018-03-15T05:01:48.121Z,3.70
2018-03-15T05:04:15.623Z,3.70
2018-03-15T05:06:43.091Z,3.70
2018-03-15T05:09:11.223Z,3.70
2018-03-15T05:11:38.707Z,3.70
2018-03-15T05:14:06.174Z,3.80
2018-03-15T05:16:34.124Z,3.80
2018-03-15T05:19:01.600Z,3.80
2018-03-15T05:21:29.079Z,3.80
2018-03-15T05:23:56.563Z,3.80
2018-03-15T05:26:24.794Z,3.70
2018-03-15T05:28:52.285Z,3.70
2018-03-15T05:33:54.513Z,3.70
2018-03-15T05:36:21.984Z,3.70
2018-03-15T05:38:49.455Z,3.80
2018-03-15T05:41:16.934Z,3.80
2018-03-15T05:43:44.394Z,3.80
2018-03-15T05:46:12.641Z,3.80
2018-03-15T05:48:40.120Z,3.80
2018-03-15T05:51:07.588Z,3.90
2018-03-15T05:53:35.042Z,3.80
2018-03-15T05:56:03.371Z,3.80
2018-03-15T05:58:30.904Z,3.80
2018-03-15T06:00:58.375Z,3.80
2018-03-15T06:03:25.926Z,3.80
2018-03-15T06:05:53.384Z,3.80
2018-03-15T06:08:20.865Z,3.80
2018-03-15T06:10:48.345Z,3.80
2018-03-15T06:13:15.822Z,3.80
2018-03-15T06:15:44.078Z,3.80
2018-03-15T06:18:11.544Z,3.80
2018-03-15T06:20:39.004Z,3.80
2018-03-15T06:23:06.476Z,3.80
2018-03-15T06:25:34.725Z,3.80
2018-03-15T06:28:02.967Z,3.80
2018-03-15T06:30:30.466Z,3.80
2018-03-15T06:32:58.791Z,3.90
2018-03-15T06:35:26.259Z,3.90
2018-03-15T06:37:53.751Z,3.90
2018-03-15T06:40:21.239Z,3.90
2018-03-15T06:42:48.719Z,4.00
2018-03-15T06:45:16.208Z,4.00
2018-03-15T06:47:43.734Z,4.00
2018-03-15T06:50:12.095Z,4.00
2018-03-15T06:52:39.575Z,4.00
2018-03-15T06:55:07.058Z,4.00
2018-03-15T06:57:34.562Z,4.10
2018-03-15T07:00:02.044Z,4.10
2018-03-15T07:02:32.368Z,4.10
2018-03-15T07:05:00.887Z,4.10
2018-03-15T07:07:29.859Z,4.10
2018-03-15T07:09:57.346Z,4.10
2018-03-15T07:12:24.821Z,4.20
2018-03-15T07:14:53.063Z,4.30
2018-03-15T07:17:20.547Z,4.30
2018-03-15T07:19:49.782Z,4.40
2018-03-15T07:22:17.259Z,4.40
2018-03-15T07:24:45.015Z,4.40
2018-03-15T07:27:12.687Z,4.50
2018-03-15T07:29:40.906Z,4.60
2018-03-15T07:32:09.216Z,4.70
2018-03-15T07:34:36.691Z,4.70
2018-03-15T07:37:04.152Z,4.90
2018-03-15T07:39:31.623Z,5.00
2018-03-15T07:42:00.314Z,5.10
2018-03-15T07:44:27.888Z,5.20
2018-03-15T07:46:55.366Z,5.30
2018-03-15T07:49:23.602Z,5.60
2018-03-15T07:51:51.072Z,5.50
2018-03-15T07:54:18.534Z,5.60
2018-03-15T07:56:46.763Z,5.80
2018-03-15T07:59:14.234Z,5.70
2018-03-15T08:01:41.712Z,5.80
2018-03-15T08:04:09.191Z,5.90
2018-03-15T08:06:37.443Z,5.90
2018-03-15T08:09:04.912Z,5.90
2018-03-15T08:11:34.005Z,6.00
2018-03-15T08:14:01.663Z,6.00
2018-03-15T08:16:29.127Z,6.10
2018-03-15T08:18:56.601Z,6.20
2018-03-15T08:21:24.842Z,6.40
2018-03-15T08:23:52.326Z,6.40
2018-03-15T08:26:20.548Z,6.60
2018-03-15T08:28:48.028Z,6.60
2018-03-15T08:31:15.492Z,6.80
2018-03-15T08:33:42.961Z,6.90
2018-03-15T08:36:10.434Z,6.90
2018-03-15T08:38:42.127Z,7.00
2018-03-15T08:41:13.265Z,7.00
2018-03-15T08:43:40.836Z,6.90
2018-03-15T08:46:08.295Z,7.00
2018-03-15T08:48:35.770Z,7.00
2018-03-15T08:51:03.236Z,6.90
2018-03-15T08:53:30.791Z,6.90
2018-03-15T08:55:58.294Z,7.00
2018-03-15T08:58:25.762Z,7.10
2018-03-15T09:00:53.253Z,7.20
2018-03-15T09:03:20.723Z,7.30
2018-03-15T09:05:48.404Z,7.40
2018-03-15T09:08:15.751Z,7.40
2018-03-15T09:10:43.987Z,7.60
2018-03-15T09:13:11.680Z,7.50
2018-03-15T09:15:39.134Z,7.60
2018-03-15T09:18:06.609Z,7.70
2018-03-15T09:20:34.844Z,8.00
2018-03-15T09:23:02.308Z,8.00
2018-03-15T09:25:29.790Z,8.20
2018-03-15T09:27:58.010Z,8.30
2018-03-15T09:30:25.482Z,8.30
2018-03-15T09:32:52.971Z,8.40
2018-03-15T09:35:20.435Z,8.50
2018-03-15T09:37:48.679Z,8.60
2018-03-15T09:40:16.791Z,8.50
2018-03-15T09:42:45.051Z,8.60
2018-03-15T09:45:13.327Z,8.70
2018-03-15T09:47:41.575Z,8.70
2018-03-15T09:50:09.047Z,8.70
2018-03-15T09:52:36.531Z,8.80
2018-03-15T09:55:04.787Z,9.00
2018-03-15T09:57:32.346Z,9.00
2018-03-15T09:59:59.812Z,9.00
2018-03-15T10:02:28.062Z,9.10
2018-03-15T10:04:55.531Z,9.10
2018-03-15T10:07:23.007Z,9.10
2018-03-15T10:09:51.243Z,9.20
2018-03-15T10:12:18.731Z,9.20
2018-03-15T10:14:46.991Z,9.10
2018-03-15T10:17:14.467Z,9.10
2018-03-15T10:19:42.720Z,9.30
2018-03-15T10:22:10.233Z,9.20
2018-03-15T10:24:37.675Z,9.40
2018-03-15T10:27:05.153Z,9.40
2018-03-15T10:29:32.667Z,9.30
2018-03-15T10:32:00.918Z,9.60
2018-03-15T10:34:28.422Z,9.60
2018-03-15T10:36:55.912Z,9.70
2018-03-15T10:39:24.315Z,9.80
2018-03-15T10:41:51.787Z,9.90
2018-03-15T10:44:19.259Z,10.10
2018-03-15T10:46:47.504Z,10.20
2018-03-15T10:49:14.992Z,10.20
2018-03-15T10:51:43.251Z,10.40
2018-03-15T10:54:10.785Z,10.40
2018-03-15T10:56:38.276Z,10.40
2018-03-15T10:59:07.551Z,10.40
2018-03-15T11:01:40.776Z,10.40
2018-03-15T11:04:11.780Z,10.50
2018-03-15T11:06:51.206Z,10.50
2018-03-15T11:09:22.287Z,10.50
2018-03-15T11:11:51.162Z,10.60
2018-03-15T11:14:18.644Z,10.60
2018-03-15T11:16:46.884Z,10.50
2018-03-15T11:19:14.368Z,10.50
2018-03-15T11:21:42.624Z,10.40
2018-03-15T11:24:10.341Z,10.30
2018-03-15T11:26:37.831Z,10.30
2018-03-15T11:29:05.311Z,10.30
2018-03-15T11:31:32.778Z,10.30
2018-03-15T11:34:01.022Z,10.20
2018-03-15T11:36:29.161Z,10.20
2018-03-15T11:38:56.671Z,10.30
2018-03-15T11:41:24.151Z,10.20
2018-03-15T11:43:51.623Z,10.20
2018-03-15T11:46:19.095Z,10.20
2018-03-15T11:48:46.645Z,10.20
2018-03-15T11:51:14.135Z,10.30
2018-03-15T11:53:41.612Z,10.30
2018-03-15T11:56:09.136Z,10.30
2018-03-15T11:58:37.336Z,10.40
2018-03-15T12:01:04.824Z,10.40
2018-03-15T12:03:33.280Z,10.60
2018-03-15T12:06:00.747Z,10.60
2018-03-15T12:08:28.986Z,10.60
2018-03-15T12:10:56.471Z,10.60
2018-03-15T12:13:23.945Z,10.70
2018-03-15T12:15:52.195Z,10.70
2018-03-15T12:18:20.488Z,10.70
2018-03-15T12:20:47.956Z,10.70
2018-03-15T12:23:16.208Z,10.80
2018-03-15T12:25:44.496Z,10.90
2018-03-15T12:28:11.966Z,10.80
2018-03-15T12:30:40.222Z,11.00
2018-03-15T12:33:07.716Z,11.00
2018-03-15T12:35:35.957Z,10.90
2018-03-15T12:38:03.443Z,10.90
2018-03-15T12:40:31.687Z,10.90
2018-03-15T12:42:59.159Z,10.90
2018-03-15T12:45:27.403Z,11.00
2018-03-15T12:47:54.884Z,11.00
2018-03-15T12:50:22.373Z,11.00
2018-03-15T12:52:49.900Z,11.00
2018-03-15T12:55:17.372Z,10.90
2018-03-15T12:57:45.610Z,10.80
2018-03-15T13:00:13.093Z,10.80
2018-03-15T13:02:41.343Z,10.70
2018-03-15T13:05:08.835Z,10.70
2018-03-15T13:07:37.133Z,10.70
2018-03-15T13:10:04.632Z,10.70
2018-03-15T13:12:32.101Z,10.70
2018-03-15T13:14:59.566Z,10.70
2018-03-15T13:17:27.041Z,10.80
2018-03-15T13:19:55.278Z,10.80
2018-03-15T13:22:22.759Z,10.80
2018-03-15T13:24:51.043Z,10.70
2018-03-15T13:27:19.268Z,10.70
2018-03-15T13:29:46.744Z,10.70
2018-03-15T13:32:14.224Z,10.70
2018-03-15T13:34:42.451Z,10.90
2018-03-15T13:37:09.935Z,10.80
2018-03-15T13:39:37.411Z,10.90
2018-03-15T13:42:05.661Z,11.20
2018-03-15T13:44:33.124Z,11.20
2018-03-15T13:47:00.607Z,11.30
2018-03-15T13:49:28.854Z,11.30
2018-03-15T13:51:56.362Z,11.30
2018-03-15T13:54:23.814Z,11.20
2018-03-15T13:56:52.042Z,11.10
2018-03-15T13:59:19.523Z,11.10
2018-03-15T14:01:47.780Z,10.90
2018-03-15T14:04:15.247Z,10.90
2018-03-15T14:06:42.733Z,10.80
2018-03-15T14:09:10.221Z,10.80
2018-03-15T14:11:37.690Z,10.80
2018-03-15T14:14:05.175Z,10.80
2018-03-15T14:16:32.721Z,10.80
2018-03-15T14:19:00.259Z,10.80
2018-03-15T14:21:27.938Z,10.80
2018-03-15T14:23:56.281Z,10.80
2018-03-15T14:26:23.896Z,10.80
2018-03-15T14:28:52.203Z,10.80
2018-03-15T14:31:19.678Z,10.80
2018-03-15T14:33:47.258Z,10.80
2018-03-15T14:36:14.826Z,10.90
2018-03-15T14:38:42.464Z,10.90
2018-03-15T14:41:10.052Z,11.00
2018-03-15T14:43:37.624Z,11.00
2018-03-15T14:46:06.868Z,11.10
2018-03-15T14:48:34.411Z,11.10
2018-03-15T14:51:02.294Z,11.10
2018-03-15T14:53:29.911Z,11.10
2018-03-15T14:55:58.367Z,11.00
2018-03-15T14:58:26.700Z,11.00
2018-03-15T15:00:54.352Z,11.00
2018-03-15T15:03:22.168Z,10.90
2018-03-15T15:05:49.815Z,11.00
2018-03-15T15:08:17.567Z,11.00
2018-03-15T15:10:45.725Z,10.90
2018-03-15T15:13:13.456Z,10.90
2018-03-15T15:15:42.254Z,10.80
2018-03-15T15:18:10.144Z,10.80
2018-03-15T15:20:38.364Z,10.70
2018-03-15T15:23:06.949Z,10.60
2018-03-15T15:25:35.509Z,10.60
2018-03-15T15:28:04.069Z,10.50
2018-03-15T15:30:31.875Z,10.50
2018-03-15T15:33:00.385Z,10.50
2018-03-15T15:35:28.157Z,10.50
2018-03-15T15:37:55.977Z,10.50
2018-03-15T15:40:25.064Z,10.50
2018-03-15T15:42:53.518Z,10.50
2018-03-15T15:45:21.293Z,10.40
2018-03-15T15:47:49.032Z,10.40
2018-03-15T15:50:16.794Z,10.40
2018-03-15T15:52:44.484Z,10.50
2018-03-15T15:55:12.086Z,10.60
2018-03-15T15:57:39.599Z,10.60
2018-03-15T16:00:07.243Z,10.60
2018-03-15T16:02:34.723Z,10.60
2018-03-15T16:05:02.186Z,10.50
2018-03-15T16:07:29.677Z,10.50
2018-03-15T16:09:57.137Z,10.40
2018-03-15T16:12:24.619Z,10.40
2018-03-15T16:14:52.134Z,10.30
2018-03-15T16:17:19.599Z,10.30
2018-03-15T16:19:47.064Z,10.30
2018-03-15T16:22:14.559Z,10.30
2018-03-15T16:24:42.034Z,10.10
2018-03-15T16:27:09.507Z,10.10
2018-03-15T16:29:37.114Z,10.00
2018-03-15T16:32:05.355Z,10.00
2018-03-15T16:34:32.847Z,10.00
2018-03-15T16:37:01.132Z,9.90
2018-03-15T16:39:29.367Z,9.90
2018-03-15T16:41:56.883Z,9.90
2018-03-15T16:44:24.354Z,9.80
2018-03-15T16:46:51.830Z,9.70
2018-03-15T16:49:19.290Z,9.70
2018-03-15T16:51:48.260Z,9.60
2018-03-15T16:54:15.726Z,9.60
2018-03-15T16:56:43.207Z,9.60
2018-03-15T16:59:10.680Z,9.50
2018-03-15T17:01:38.975Z,9.50
2018-03-15T17:04:06.444Z,9.40
2018-03-15T17:06:33.955Z,9.40
2018-03-15T17:09:01.445Z,9.40
2018-03-15T17:11:29.671Z,9.30
2018-03-15T17:13:57.136Z,9.30
2018-03-15T17:16:24.692Z,9.30
2018-03-15T17:18:52.176Z,9.30
2018-03-15T17:21:20.420Z,9.20
2018-03-15T17:23:48.261Z,9.20
2018-03-15T17:26:16.410Z,9.20
2018-03-15T17:28:45.816Z,9.10
2018-03-15T17:31:13.322Z,9.10
2018-03-15T17:33:40.793Z,9.10
2018-03-15T17:36:08.290Z,9.00
2018-03-15T17:38:35.770Z,8.90
2018-03-15T17:41:03.268Z,8.90
2018-03-15T17:43:30.748Z,8.90
2018-03-15T17:45:58.966Z,8.80
2018-03-15T17:48:26.459Z,8.80
2018-03-15T17:50:53.959Z,8.80
2018-03-15T17:53:21.451Z,8.70
2018-03-15T17:55:49.285Z,8.70
2018-03-15T17:58:16.780Z,8.70
2018-03-15T18:00:44.248Z,8.60
2018-03-15T18:03:11.735Z,8.60
2018-03-15T18:05:39.996Z,8.50
2018-03-15T18:08:08.256Z,8.50
2018-03-15T18:10:35.758Z,8.50
2018-03-15T18:13:03.242Z,8.50
2018-03-15T18:15:30.702Z,8.50
2018-03-15T18:17:58.183Z,8.40
2018-03-15T18:20:25.684Z,8.30
2018-03-15T18:22:53.140Z,8.30
2018-03-15T18:25:20.683Z,8.30
2018-03-15T18:27:48.917Z,8.20
2018-03-15T18:30:16.382Z,8.20
2018-03-15T18:32:43.960Z,8.20
2018-03-15T18:35:12.211Z,8.10
2018-03-15T18:37:40.571Z,8.10
2018-03-15T18:40:08.115Z,8.10
2018-03-15T18:42:35.603Z,8.00
2018-03-15T18:45:03.054Z,8.00
2018-03-15T18:47:30.585Z,8.00
2018-03-15T18:49:58.776Z,8.00
2018-03-15T18:52:26.238Z,8.00
2018-03-15T18:54:53.736Z,8.10
2018-03-15T18:57:21.973Z,8.10
2018-03-15T18:59:49.454Z,8.10
2018-03-15T19:02:16.968Z,8.10
2018-03-15T19:04:44.425Z,8.10
2018-03-15T19:07:11.923Z,8.10
2018-03-15T19:09:39.450Z,8.20
2018-03-15T19:12:07.682Z,8.20
2018-03-15T19:14:35.956Z,8.20
2018-03-15T19:17:04.187Z,8.20
2018-03-15T19:19:31.655Z,8.20
2018-03-15T19:21:59.172Z,8.10
2018-03-15T19:24:26.637Z,8.10
2018-03-15T19:26:54.096Z,8.10
2018-03-15T19:29:21.592Z,8.10
2018-03-15T19:31:49.864Z,8.10
2018-03-15T19:34:17.329Z,8.10
2018-03-15T19:36:44.828Z,8.10
2018-03-15T19:39:12.288Z,8.00
2018-03-15T19:41:39.752Z,8.00
2018-03-15T19:44:07.240Z,8.00
2018-03-15T19:46:34.728Z,8.00
2018-03-15T19:49:02.967Z,8.00
2018-03-15T19:51:31.944Z,7.90
2018-03-15T19:53:59.443Z,7.90
2018-03-15T19:56:26.912Z,8.00
2018-03-15T19:58:55.150Z,8.00
2018-03-15T20:01:22.647Z,7.90
2018-03-15T20:03:50.912Z,7.90
2018-03-15T20:06:19.156Z,7.90
2018-03-15T20:08:46.642Z,7.90
2018-03-15T20:11:14.142Z,7.90
2018-03-15T20:13:41.613Z,7.90
2018-03-15T20:16:09.122Z,7.80
2018-03-15T20:18:37.358Z,7.80
2018-03-15T20:21:05.607Z,7.80
2018-03-15T20:23:38.815Z,7.80
2018-03-15T20:26:07.072Z,7.80
2018-03-15T20:28:40.131Z,7.80
2018-03-15T20:31:08.374Z,7.80
2018-03-15T20:33:41.595Z,7.70
2018-03-15T20:36:09.839Z,7.70
2018-03-15T20:38:37.307Z,7.70
2018-03-15T20:41:10.527Z,7.70
2018-03-15T20:43:38.867Z,7.70
2018-03-15T20:46:11.976Z,7.70
2018-03-15T20:48:45.791Z,7.70
2018-03-15T20:51:14.039Z,7.60
2018-03-15T20:53:41.499Z,7.60
2018-03-15T20:56:08.971Z,7.60
2018-03-15T20:58:36.455Z,7.60
2018-03-15T21:01:03.941Z,7.60
2018-03-15T21:03:31.403Z,7.50
2018-03-15T21:05:58.905Z,7.50
2018-03-15T21:08:27.126Z,7.50
2018-03-15T21:10:54.584Z,7.50
2018-03-15T21:13:22.085Z,7.50
2018-03-15T21:15:49.571Z,7.50
2018-03-15T21:18:17.048Z,7.50
2018-03-15T21:20:45.359Z,7.50
2018-03-15T21:23:12.896Z,7.50
2018-03-15T21:25:40.369Z,7.40
2018-03-15T21:28:07.841Z,7.40
2018-03-15T21:30:35.306Z,7.40
2018-03-15T21:33:02.779Z,7.40
2018-03-15T21:35:31.044Z,7.40
2018-03-15T21:37:59.290Z,7.40
2018-03-15T21:40:27.542Z,7.40
2018-03-15T21:42:55.029Z,7.40
2018-03-15T21:45:22.503Z,7.40
2018-03-15T21:47:51.025Z,7.40
2018-03-15T21:50:18.518Z,7.40
2018-03-15T21:52:46.883Z,7.30
2018-03-15T21:55:18.202Z,7.40
2018-03-15T21:57:45.811Z,7.30
2018-03-15T22:00:13.372Z,7.40
2018-03-15T22:05:15.668Z,7.30
2018-03-15T22:07:43.154Z,7.30
2018-03-15T22:10:10.650Z,7.20
2018-03-15T22:12:38.115Z,7.20
2018-03-15T22:15:06.220Z,7.10
2018-03-15T22:17:33.691Z,7.10
2018-03-15T22:20:01.920Z,7.00
2018-03-15T22:22:29.407Z,7.00
2018-03-15T22:24:56.867Z,7.10
2018-03-15T22:27:25.095Z,7.00
2018-03-15T22:29:52.570Z,7.00
2018-03-15T22:32:20.039Z,7.00
2018-03-15T22:34:49.012Z,6.90
2018-03-15T22:37:16.491Z,6.90
2018-03-15T22:39:43.966Z,6.90
2018-03-15T22:42:12.203Z,6.90
2018-03-15T22:44:39.695Z,6.90
2018-03-15T22:47:07.940Z,6.90
2018-03-15T22:49:35.428Z,6.90
2018-03-15T22:52:02.890Z,6.90
2018-03-15T22:54:31.149Z,6.90
2018-03-15T22:56:58.707Z,6.90
2018-03-15T22:59:26.182Z,6.80
2018-03-15T23:01:54.415Z,6.80
2018-03-15T23:04:21.875Z,6.80
2018-03-15T23:06:49.396Z,6.90
2018-03-15T23:09:16.886Z,6.90
2018-03-15T23:11:44.860Z,6.90
2018-03-15T23:14:12.339Z,6.90
2018-03-15T23:16:40.615Z,6.90
2018-03-15T23:19:08.082Z,6.80
2018-03-15T23:21:36.346Z,7.00
2018-03-15T23:24:05.587Z,7.00
2018-03-15T23:26:33.178Z,7.00
2018-03-15T23:29:01.376Z,7.00
2018-03-15T23:31:28.834Z,7.00
2018-03-15T23:33:56.304Z,7.00
2018-03-15T23:36:24.582Z,7.00
2018-03-15T23:38:52.854Z,6.90
2018-03-15T23:41:21.110Z,6.90
2018-03-15T23:43:48.598Z,6.90
2018-03-15T23:46:16.832Z,6.90
2018-03-15T23:48:45.459Z,6.90
2018-03-15T23:51:12.931Z,7.00
2018-03-15T23:53:40.408Z,6.90
2018-03-15T23:56:07.878Z,6.90
2018-03-15T23:58:35.380Z,6.90
